Warning: Javascript must be enabled to use all the features on this page!


Page Loading - Please Wait...

Click to hideNews Bulletins

Peak Streamflow for the Nation

USGS 07251500 Frog Bayou at Rudy, AR

Crawford County, Arkansas
Hydrologic Unit Code 11110201
Latitude  35°31'33", Longitude  94°16'17" NAD83
Drainage area 216  square miles
Gage datum 475.08 feet above NGVD29
Output formats
Table
Graph
Tab-separated file
peakfq (watstore) format
Reselect output format
Water
Year
Date Gage
Height
(feet)
Stream-
flow
(cfs)
1945 1945-04-15 18.50 39,5006,7
1950 1950-05-10 11.40 13,2006
1951 1951-07-02 11.77 14,7006
1952 1952-04-12 8.86 6,6906
1953 1953-03-17 10.22 9,2506
1954 1954-05-02 5.86 1,5206
1955 1955-02-19 11.34 12,6006
1956 1956-05-15 6.82 2,7106
1957 1957-05-23 18.04 36,2006
1958 1958-07-12 14.25 19,1006
1959 1959-05-11 8.07 4,6506
1960 1960-05-06 14.60 20,4006
1961 1961-05-05 13.60 17,3006
1962 1961-11-22 8.73 5,6606
1963 1963-04-27 6.20 2,1406
1964 1964-04-05 11.46 11,6006
1965 1965-05-10 9.72 7,5506
1966 1966-02-09 15.14 18,9006
1967 1967-04-30 8.47 5,2406
1968 1968-03-20 11.73 11,2006
1969 1968-12-27 10.57 8,8406
1970 1970-05-01 15.64 20,2006
1971 1970-10-26 15.26 19,3006
1972 1971-12-10 16.40 23,0006
1973 1973-04-22 14.50 17,5006
1974 1973-11-24 17.40 32,0006
1975 1974-11-04 11.23 10,2006
1976 1976-04-20 11.00 9,7006
1977 1977-03-27 13.20 14,4006
1978 1978-03-24 10.52 8,7406
1979 1979-04-11 10.11 7,9206
1980 1980-03-24 6.28 1,8906
1981 1981-06-10 8.90 5,6206
1982 1982-05-13 15.32 19,4006
1983 1982-12-03 12.58 13,1006
1984 1984-05-07 10.90 9,5006
1985 1985-03-30 13.22 14,5006
1986 1985-11-19 15.37 19,5006
1987 1987-03-17 11.31 11,0006
1988 1988-04-02 14.84 21,2006
1989 1989-02-13 11.22 10,9006
1990 1990-05-03 18.76 41,3006
1991 1991-04-13 8.12 4,7706
1992 1991-11-06 12.88 13,5006
1993 1993-04-14 11.09 10,6006
1994 1994-07-14 9.94 8,0306
1995 1995-05-08 11.59 11,8006
1996 1996-09-26 12.28 13,5006
1997 1996-11-07 15.76 24,2006
1998 1998-01-05 12.50 14,1006
1999 1999-06-30 15.54 23,5006
2000 2000-06-21 17.97 35,8006
2001 2001-02-15 10.45 9,1106
2002 2002-04-08 16.97 29,4006
2003 2003-05-16 12.11 13,1006
2004 2004-04-24 15.45 23,4006
2005 2005-01-04 13.31 17,2006
2006 2006-06-06 7.11 4,2606
2007 2007-01-13 11.22 11,9006
2008 2008-04-10 16.09 25,5006
2009 2009-09-22 12.12 14,1006
2010 2010-09-09 17.01 28,6006
2011 2011-05-24 13.50 17,7006
2012 2012-03-20 9.81 8,9406
2013 2013-06-01 9.09 7,5406
2014 2014-03-16 5.58 2,5106
2015 2015-05-11 12.81 15,8006
2016 2015-12-27 17.43 31,1006
2017 2017-04-26 11.73 16,2006
2018 2018-02-24 8.51 8,720
2019 2019-08-09 14.32 18,100
2020 2020-01-11 9.19  
?
  Peak Streamflow Qualification Codes.